sensor_id;sensor_type;location;lat;lon;timestamp;temperature;humidity
2839;DHT22;1427;48.510;9.060;2024-01-10T00:01:19;-4.60;99.90
2839;DHT22;1427;48.510;9.060;2024-01-10T00:03:48;-4.70;99.90
2839;DHT22;1427;48.510;9.060;2024-01-10T00:06:17;-4.70;99.90
2839;DHT22;1427;48.510;9.060;2024-01-10T00:08:45;-5.00;99.90
2839;DHT22;1427;48.510;9.060;2024-01-10T00:11:13;-4.90;99.90
2839;DHT22;1427;48.510;9.060;2024-01-10T00:13:42;-4.80;99.90
2839;DHT22;1427;48.510;9.060;2024-01-10T00:16:12;-4.70;99.90
2839;DHT22;1427;48.510;9.060;2024-01-10T00:18:41;-4.70;99.90
2839;DHT22;1427;48.510;9.060;2024-01-10T00:21:10;-4.70;99.90
2839;DHT22;1427;48.510;9.060;2024-01-10T00:23:39;-4.70;99.90
2839;DHT22;1427;48.510;9.060;2024-01-10T00:26:07;-4.70;99.90
2839;DHT22;1427;48.510;9.060;2024-01-10T00:28:35;-4.60;99.90
2839;DHT22;1427;48.510;9.060;2024-01-10T00:31:04;-4.50;99.90
2839;DHT22;1427;48.510;9.060;2024-01-10T00:33:32;-4.50;99.90
2839;DHT22;1427;48.510;9.060;2024-01-10T00:36:00;-4.50;99.90
2839;DHT22;1427;48.510;9.060;2024-01-10T00:38:28;-4.40;99.90
2839;DHT22;1427;48.510;9.060;2024-01-10T00:40:58;-4.30;99.90
2839;DHT22;1427;48.510;9.060;2024-01-10T00:43:26;-4.40;99.90
2839;DHT22;1427;48.510;9.060;2024-01-10T00:45:54;-4.40;99.90
2839;DHT22;1427;48.510;9.060;2024-01-10T00:48:22;-4.40;99.90
2839;DHT22;1427;48.510;9.060;2024-01-10T00:50:50;-4.40;99.90
2839;DHT22;1427;48.510;9.060;2024-01-10T00:53:18;-4.40;99.90
2839;DHT22;1427;48.510;9.060;2024-01-10T00:55:46;-4.30;99.90
2839;DHT22;1427;48.510;9.060;2024-01-10T00:58:16;-4.40;99.90
2839;DHT22;1427;48.510;9.060;2024-01-10T01:00:44;-3.90;99.90
2839;DHT22;1427;48.510;9.060;2024-01-10T01:03:12;-4.40;99.90
2839;DHT22;1427;48.510;9.060;2024-01-10T01:05:40;-4.50;99.90
2839;DHT22;1427;48.510;9.060;2024-01-10T01:08:09;-4.50;99.90
2839;DHT22;1427;48.510;9.060;2024-01-10T01:10:37;-4.50;99.90
2839;DHT22;1427;48.510;9.060;2024-01-10T01:13:05;-4.20;99.90
2839;DHT22;1427;48.510;9.060;2024-01-10T01:15:34;-4.10;99.90
2839;DHT22;1427;48.510;9.060;2024-01-10T01:18:03;-4.40;99.90
2839;DHT22;1427;48.510;9.060;2024-01-10T01:20:32;-4.40;99.90
2839;DHT22;1427;48.510;9.060;2024-01-10T01:23:00;-4.50;99.90
2839;DHT22;1427;48.510;9.060;2024-01-10T01:25:29;-4.80;99.90
2839;DHT22;1427;48.510;9.060;2024-01-10T01:27:57;-4.40;99.90
2839;DHT22;1427;48.510;9.060;2024-01-10T01:30:25;-4.50;99.90
2839;DHT22;1427;48.510;9.060;2024-01-10T01:32:54;-4.50;99.90
2839;DHT22;1427;48.510;9.060;2024-01-10T01:35:23;-4.50;99.90
2839;DHT22;1427;48.510;9.060;2024-01-10T01:37:51;-4.40;99.90
2839;DHT22;1427;48.510;9.060;2024-01-10T01:40:19;-4.40;99.90
2839;DHT22;1427;48.510;9.060;2024-01-10T01:42:47;-4.40;99.90
2839;DHT22;1427;48.510;9.060;2024-01-10T01:45:15;-4.40;99.90
2839;DHT22;1427;48.510;9.060;2024-01-10T01:47:44;-4.40;99.90
2839;DHT22;1427;48.510;9.060;2024-01-10T01:50:14;-4.30;99.90
2839;DHT22;1427;48.510;9.060;2024-01-10T01:52:43;-4.30;99.90
2839;DHT22;1427;48.510;9.060;2024-01-10T01:55:11;-4.30;99.90
2839;DHT22;1427;48.510;9.060;2024-01-10T01:57:40;-4.30;99.90
2839;DHT22;1427;48.510;9.060;2024-01-10T02:00:09;-4.30;99.90
2839;DHT22;1427;48.510;9.060;2024-01-10T02:02:37;-4.30;99.90
2839;DHT22;1427;48.510;9.060;2024-01-10T02:05:06;-4.30;99.90
2839;DHT22;1427;48.510;9.060;2024-01-10T02:07:36;-4.30;99.90
2839;DHT22;1427;48.510;9.060;2024-01-10T02:10:04;-4.30;99.90
2839;DHT22;1427;48.510;9.060;2024-01-10T02:12:33;-4.20;99.90
2839;DHT22;1427;48.510;9.060;2024-01-10T02:15:02;-4.20;99.90
2839;DHT22;1427;48.510;9.060;2024-01-10T02:17:30;-4.20;99.90
2839;DHT22;1427;48.510;9.060;2024-01-10T02:20:08;-4.10;99.90
2839;DHT22;1427;48.510;9.060;2024-01-10T02:22:38;-4.00;99.90
2839;DHT22;1427;48.510;9.060;2024-01-10T02:25:08;-4.00;99.90
2839;DHT22;1427;48.510;9.060;2024-01-10T02:27:37;-4.10;99.90
2839;DHT22;1427;48.510;9.060;2024-01-10T02:30:07;-4.10;99.90
2839;DHT22;1427;48.510;9.060;2024-01-10T02:32:35;-4.00;99.90
2839;DHT22;1427;48.510;9.060;2024-01-10T02:35:05;-3.90;99.90
2839;DHT22;1427;48.510;9.060;2024-01-10T02:37:33;-3.90;99.90
2839;DHT22;1427;48.510;9.060;2024-01-10T02:40:01;-3.90;99.90
2839;DHT22;1427;48.510;9.060;2024-01-10T02:42:32;-3.90;99.90
2839;DHT22;1427;48.510;9.060;2024-01-10T02:45:00;-3.90;99.90
2839;DHT22;1427;48.510;9.060;2024-01-10T02:47:28;-3.80;99.90
2839;DHT22;1427;48.510;9.060;2024-01-10T02:49:56;-3.80;99.90
2839;DHT22;1427;48.510;9.060;2024-01-10T02:52:24;-3.70;99.90
2839;DHT22;1427;48.510;9.060;2024-01-10T02:54:52;-3.60;99.90
2839;DHT22;1427;48.510;9.060;2024-01-10T02:57:21;-3.50;99.90
2839;DHT22;1427;48.510;9.060;2024-01-10T02:59:50;-3.60;99.90
2839;DHT22;1427;48.510;9.060;2024-01-10T03:02:18;-3.60;99.90
2839;DHT22;1427;48.510;9.060;2024-01-10T03:04:47;-3.70;99.90
2839;DHT22;1427;48.510;9.060;2024-01-10T03:07:15;-3.70;99.90
2839;DHT22;1427;48.510;9.060;2024-01-10T03:09:44;-3.70;99.90
2839;DHT22;1427;48.510;9.060;2024-01-10T03:12:12;-3.70;99.90
2839;DHT22;1427;48.510;9.060;2024-01-10T03:14:40;-3.70;99.90
2839;DHT22;1427;48.510;9.060;2024-01-10T03:17:10;-3.70;99.90
2839;DHT22;1427;48.510;9.060;2024-01-10T03:19:38;-3.80;99.90
2839;DHT22;1427;48.510;9.060;2024-01-10T03:22:09;-3.80;99.90
2839;DHT22;1427;48.510;9.060;2024-01-10T03:24:38;-3.70;99.90
2839;DHT22;1427;48.510;9.060;2024-01-10T03:27:06;-3.80;99.90
2839;DHT22;1427;48.510;9.060;2024-01-10T03:29:34;-3.70;99.90
2839;DHT22;1427;48.510;9.060;2024-01-10T03:32:02;-3.70;99.90
2839;DHT22;1427;48.510;9.060;2024-01-10T03:34:32;-3.80;99.90
2839;DHT22;1427;48.510;9.060;2024-01-10T03:37:00;-3.90;99.90
2839;DHT22;1427;48.510;9.060;2024-01-10T03:39:28;-3.90;99.90
2839;DHT22;1427;48.510;9.060;2024-01-10T03:41:56;-3.80;99.90
2839;DHT22;1427;48.510;9.060;2024-01-10T03:44:25;-3.80;99.90
2839;DHT22;1427;48.510;9.060;2024-01-10T03:46:54;-3.80;99.90
2839;DHT22;1427;48.510;9.060;2024-01-10T03:49:22;-3.80;99.90
2839;DHT22;1427;48.510;9.060;2024-01-10T03:51:52;-3.90;99.90
2839;DHT22;1427;48.510;9.060;2024-01-10T03:54:20;-3.90;99.90
2839;DHT22;1427;48.510;9.060;2024-01-10T03:56:48;-3.90;99.90
2839;DHT22;1427;48.510;9.060;2024-01-10T03:59:16;-4.00;99.90
2839;DHT22;1427;48.510;9.060;2024-01-10T04:04:21;-4.10;99.90
2839;DHT22;1427;48.510;9.060;2024-01-10T04:06:49;-4.10;99.90
2839;DHT22;1427;48.510;9.060;2024-01-10T04:09:19;-3.90;99.90
2839;DHT22;1427;48.510;9.060;2024-01-10T04:11:47;-3.90;99.90
2839;DHT22;1427;48.510;9.060;2024-01-10T04:14:15;-3.80;99.90
2839;DHT22;1427;48.510;9.060;2024-01-10T04:16:43;-3.80;99.90
2839;DHT22;1427;48.510;9.060;2024-01-10T04:19:11;-3.80;99.90
2839;DHT22;1427;48.510;9.060;2024-01-10T04:21:39;-3.80;99.90
2839;DHT22;1427;48.510;9.060;2024-01-10T04:24:07;-3.80;99.90
2839;DHT22;1427;48.510;9.060;2024-01-10T04:26:37;-3.90;99.90
2839;DHT22;1427;48.510;9.060;2024-01-10T04:29:05;-3.80;99.90
2839;DHT22;1427;48.510;9.060;2024-01-10T04:31:33;-3.70;99.90
2839;DHT22;1427;48.510;9.060;2024-01-10T04:34:02;-3.70;99.90
2839;DHT22;1427;48.510;9.060;2024-01-10T04:36:31;-3.70;99.90
2839;DHT22;1427;48.510;9.060;2024-01-10T04:38:59;-3.70;99.90
2839;DHT22;1427;48.510;9.060;2024-01-10T04:41:27;-3.60;99.90
2839;DHT22;1427;48.510;9.060;2024-01-10T04:43:56;-3.60;99.90
2839;DHT22;1427;48.510;9.060;2024-01-10T04:46:25;-3.60;99.90
2839;DHT22;1427;48.510;9.060;2024-01-10T04:48:53;-3.60;99.90
2839;DHT22;1427;48.510;9.060;2024-01-10T04:51:21;-3.50;99.90
2839;DHT22;1427;48.510;9.060;2024-01-10T04:53:49;-3.60;99.90
2839;DHT22;1427;48.510;9.060;2024-01-10T04:56:17;-3.60;99.90
2839;DHT22;1427;48.510;9.060;2024-01-10T04:58:46;-3.60;99.90
2839;DHT22;1427;48.510;9.060;2024-01-10T05:01:15;-3.50;99.90
2839;DHT22;1427;48.510;9.060;2024-01-10T05:03:43;-3.50;99.90
2839;DHT22;1427;48.510;9.060;2024-01-10T05:06:12;-3.40;99.90
2839;DHT22;1427;48.510;9.060;2024-01-10T05:08:40;-3.50;99.90
2839;DHT22;1427;48.510;9.060;2024-01-10T05:11:08;-3.50;99.90
2839;DHT22;1427;48.510;9.060;2024-01-10T05:13:36;-3.70;99.90
2839;DHT22;1427;48.510;9.060;2024-01-10T05:16:06;-3.70;99.90
2839;DHT22;1427;48.510;9.060;2024-01-10T05:18:35;-3.50;99.90
2839;DHT22;1427;48.510;9.060;2024-01-10T05:21:03;-3.50;99.90
2839;DHT22;1427;48.510;9.060;2024-01-10T05:23:32;-3.40;99.90
2839;DHT22;1427;48.510;9.060;2024-01-10T05:26:00;-3.40;99.90
2839;DHT22;1427;48.510;9.060;2024-01-10T05:28:28;-3.40;99.90
2839;DHT22;1427;48.510;9.060;2024-01-10T05:30:56;-3.50;99.90
2839;DHT22;1427;48.510;9.060;2024-01-10T05:33:25;-3.60;99.90
2839;DHT22;1427;48.510;9.060;2024-01-10T05:35:54;-3.70;99.90
2839;DHT22;1427;48.510;9.060;2024-01-10T05:38:22;-3.80;99.90
2839;DHT22;1427;48.510;9.060;2024-01-10T05:40:50;-3.80;99.90
2839;DHT22;1427;48.510;9.060;2024-01-10T05:43:19;-3.70;99.90
2839;DHT22;1427;48.510;9.060;2024-01-10T05:45:48;-3.80;99.90
2839;DHT22;1427;48.510;9.060;2024-01-10T05:48:16;-3.90;99.90
2839;DHT22;1427;48.510;9.060;2024-01-10T05:50:45;-3.90;99.90
2839;DHT22;1427;48.510;9.060;2024-01-10T05:53:14;-3.90;99.90
2839;DHT22;1427;48.510;9.060;2024-01-10T05:55:43;-3.80;99.90
2839;DHT22;1427;48.510;9.060;2024-01-10T05:58:11;-3.90;99.90
2839;DHT22;1427;48.510;9.060;2024-01-10T06:00:39;-3.90;99.90
2839;DHT22;1427;48.510;9.060;2024-01-10T06:03:08;-3.90;99.90
2839;DHT22;1427;48.510;9.060;2024-01-10T06:05:36;-4.00;99.90
2839;DHT22;1427;48.510;9.060;2024-01-10T06:08:04;-4.00;99.90
2839;DHT22;1427;48.510;9.060;2024-01-10T06:10:34;-4.00;99.90
2839;DHT22;1427;48.510;9.060;2024-01-10T06:13:04;-3.90;99.90
2839;DHT22;1427;48.510;9.060;2024-01-10T06:15:32;-4.00;99.90
2839;DHT22;1427;48.510;9.060;2024-01-10T06:18:00;-4.00;99.90
2839;DHT22;1427;48.510;9.060;2024-01-10T06:20:28;-3.90;99.90
2839;DHT22;1427;48.510;9.060;2024-01-10T06:22:58;-3.90;99.90
2839;DHT22;1427;48.510;9.060;2024-01-10T06:25:27;-3.80;99.90
2839;DHT22;1427;48.510;9.060;2024-01-10T06:27:56;-3.90;99.90
2839;DHT22;1427;48.510;9.060;2024-01-10T06:30:24;-3.90;99.90
2839;DHT22;1427;48.510;9.060;2024-01-10T06:32:52;-4.00;99.90
2839;DHT22;1427;48.510;9.060;2024-01-10T06:35:22;-4.00;99.90
2839;DHT22;1427;48.510;9.060;2024-01-10T06:37:50;-4.10;99.90
2839;DHT22;1427;48.510;9.060;2024-01-10T06:40:18;-4.10;99.90
2839;DHT22;1427;48.510;9.060;2024-01-10T06:42:48;-4.10;99.90
2839;DHT22;1427;48.510;9.060;2024-01-10T06:45:18;-4.20;99.90
2839;DHT22;1427;48.510;9.060;2024-01-10T06:47:46;-4.20;99.90
2839;DHT22;1427;48.510;9.060;2024-01-10T06:50:15;-4.20;99.90
2839;DHT22;1427;48.510;9.060;2024-01-10T06:52:43;-4.30;99.90
2839;DHT22;1427;48.510;9.060;2024-01-10T06:55:11;-4.30;99.90
2839;DHT22;1427;48.510;9.060;2024-01-10T06:57:39;-4.30;99.90
2839;DHT22;1427;48.510;9.060;2024-01-10T07:00:09;-4.30;99.90
2839;DHT22;1427;48.510;9.060;2024-01-10T07:02:39;-4.20;99.90
2839;DHT22;1427;48.510;9.060;2024-01-10T07:05:08;-4.20;99.90
2839;DHT22;1427;48.510;9.060;2024-01-10T07:07:36;-4.30;99.90
2839;DHT22;1427;48.510;9.060;2024-01-10T07:10:05;-4.20;99.90
2839;DHT22;1427;48.510;9.060;2024-01-10T07:12:34;-4.30;99.90
2839;DHT22;1427;48.510;9.060;2024-01-10T07:15:02;-4.30;99.90
2839;DHT22;1427;48.510;9.060;2024-01-10T07:17:31;-4.40;99.90
2839;DHT22;1427;48.510;9.060;2024-01-10T07:20:01;-4.50;99.90
2839;DHT22;1427;48.510;9.060;2024-01-10T07:22:31;-4.30;99.90
2839;DHT22;1427;48.510;9.060;2024-01-10T07:25:00;-4.50;99.90
2839;DHT22;1427;48.510;9.060;2024-01-10T07:27:28;-4.40;99.90
2839;DHT22;1427;48.510;9.060;2024-01-10T07:29:56;-4.30;99.90
2839;DHT22;1427;48.510;9.060;2024-01-10T07:32:24;-4.30;99.90
2839;DHT22;1427;48.510;9.060;2024-01-10T07:34:53;-4.30;99.90
2839;DHT22;1427;48.510;9.060;2024-01-10T07:37:22;-4.20;99.90
2839;DHT22;1427;48.510;9.060;2024-01-10T07:39:50;-4.20;99.90
2839;DHT22;1427;48.510;9.060;2024-01-10T07:42:18;-4.10;99.90
2839;DHT22;1427;48.510;9.060;2024-01-10T07:44:46;-4.20;99.90
2839;DHT22;1427;48.510;9.060;2024-01-10T07:47:18;-4.20;99.90
2839;DHT22;1427;48.510;9.060;2024-01-10T07:49:46;-4.10;99.90
2839;DHT22;1427;48.510;9.060;2024-01-10T07:52:14;-4.10;99.90
2839;DHT22;1427;48.510;9.060;2024-01-10T07:54:45;-4.20;99.90
2839;DHT22;1427;48.510;9.060;2024-01-10T07:57:13;-4.10;99.90
2839;DHT22;1427;48.510;9.060;2024-01-10T07:59:41;-4.20;99.90
2839;DHT22;1427;48.510;9.060;2024-01-10T08:02:09;-4.30;99.90
2839;DHT22;1427;48.510;9.060;2024-01-10T08:04:37;-4.40;99.90
2839;DHT22;1427;48.510;9.060;2024-01-10T08:07:05;-4.40;99.90
2839;DHT22;1427;48.510;9.060;2024-01-10T08:09:33;-4.40;99.90
2839;DHT22;1427;48.510;9.060;2024-01-10T08:12:03;-4.50;99.90
2839;DHT22;1427;48.510;9.060;2024-01-10T08:14:31;-4.70;99.90
2839;DHT22;1427;48.510;9.060;2024-01-10T08:16:59;-4.50;99.90
2839;DHT22;1427;48.510;9.060;2024-01-10T08:19:27;-4.60;99.90
2839;DHT22;1427;48.510;9.060;2024-01-10T08:21:56;-4.80;99.90
2839;DHT22;1427;48.510;9.060;2024-01-10T08:24:24;-4.60;99.90
2839;DHT22;1427;48.510;9.060;2024-01-10T08:26:52;-4.60;99.90
2839;DHT22;1427;48.510;9.060;2024-01-10T08:29:22;-4.50;99.90
2839;DHT22;1427;48.510;9.060;2024-01-10T08:31:52;-4.30;99.90
2839;DHT22;1427;48.510;9.060;2024-01-10T08:34:21;-4.10;99.90
2839;DHT22;1427;48.510;9.060;2024-01-10T08:36:49;-4.10;99.90
2839;DHT22;1427;48.510;9.060;2024-01-10T08:39:17;-4.10;99.90
2839;DHT22;1427;48.510;9.060;2024-01-10T08:41:46;-3.80;99.90
2839;DHT22;1427;48.510;9.060;2024-01-10T08:44:14;-3.70;99.90
2839;DHT22;1427;48.510;9.060;2024-01-10T08:46:44;-3.70;99.90
2839;DHT22;1427;48.510;9.060;2024-01-10T08:49:13;-3.70;99.90
2839;DHT22;1427;48.510;9.060;2024-01-10T08:51:41;-3.80;99.90
2839;DHT22;1427;48.510;9.060;2024-01-10T08:54:10;-3.80;99.90
2839;DHT22;1427;48.510;9.060;2024-01-10T08:56:39;-3.70;99.90
2839;DHT22;1427;48.510;9.060;2024-01-10T08:59:07;-3.60;99.90
2839;DHT22;1427;48.510;9.060;2024-01-10T09:01:35;-3.50;99.90
2839;DHT22;1427;48.510;9.060;2024-01-10T09:04:06;-3.40;99.90
2839;DHT22;1427;48.510;9.060;2024-01-10T09:06:35;-3.20;99.90
2839;DHT22;1427;48.510;9.060;2024-01-10T09:09:03;-3.10;99.90
2839;DHT22;1427;48.510;9.060;2024-01-10T09:11:31;-2.90;99.90
2839;DHT22;1427;48.510;9.060;2024-01-10T09:14:05;-2.80;99.90
2839;DHT22;1427;48.510;9.060;2024-01-10T09:16:33;-2.70;99.90
2839;DHT22;1427;48.510;9.060;2024-01-10T09:19:01;-2.50;99.90
2839;DHT22;1427;48.510;9.060;2024-01-10T09:21:32;-2.40;99.90
2839;DHT22;1427;48.510;9.060;2024-01-10T09:24:00;-2.40;99.90
2839;DHT22;1427;48.510;9.060;2024-01-10T09:26:47;-2.40;99.90
2839;DHT22;1427;48.510;9.060;2024-01-10T09:29:15;-2.40;99.90
2839;DHT22;1427;48.510;9.060;2024-01-10T09:31:43;-2.30;99.90
2839;DHT22;1427;48.510;9.060;2024-01-10T09:34:12;-2.10;99.90
2839;DHT22;1427;48.510;9.060;2024-01-10T09:36:41;-1.90;99.90
2839;DHT22;1427;48.510;9.060;2024-01-10T09:39:09;-1.80;99.90
2839;DHT22;1427;48.510;9.060;2024-01-10T09:41:46;-1.70;99.90
2839;DHT22;1427;48.510;9.060;2024-01-10T09:44:15;-1.50;99.90
2839;DHT22;1427;48.510;9.060;2024-01-10T09:46:47;-1.20;99.90
2839;DHT22;1427;48.510;9.060;2024-01-10T09:49:16;-1.10;99.90
2839;DHT22;1427;48.510;9.060;2024-01-10T09:51:48;-0.90;99.90
2839;DHT22;1427;48.510;9.060;2024-01-10T09:54:17;-0.80;99.90
2839;DHT22;1427;48.510;9.060;2024-01-10T09:56:47;-0.50;99.90
2839;DHT22;1427;48.510;9.060;2024-01-10T09:59:15;-0.30;99.90
2839;DHT22;1427;48.510;9.060;2024-01-10T10:01:44;0.10;99.90
2839;DHT22;1427;48.510;9.060;2024-01-10T10:04:12;0.60;99.90
2839;DHT22;1427;48.510;9.060;2024-01-10T10:06:41;0.80;99.90
2839;DHT22;1427;48.510;9.060;2024-01-10T10:09:12;1.10;99.90
2839;DHT22;1427;48.510;9.060;2024-01-10T10:11:41;1.30;99.90
2839;DHT22;1427;48.510;9.060;2024-01-10T10:14:15;1.70;99.90
2839;DHT22;1427;48.510;9.060;2024-01-10T10:16:44;1.80;99.90
2839;DHT22;1427;48.510;9.060;2024-01-10T10:19:12;2.10;99.90
2839;DHT22;1427;48.510;9.060;2024-01-10T10:21:50;2.40;99.90
2839;DHT22;1427;48.510;9.060;2024-01-10T10:24:20;2.60;99.90
2839;DHT22;1427;48.510;9.060;2024-01-10T10:26:52;3.10;99.70
2839;DHT22;1427;48.510;9.060;2024-01-10T10:29:21;3.70;99.10
2839;DHT22;1427;48.510;9.060;2024-01-10T10:31:49;4.20;98.00
2839;DHT22;1427;48.510;9.060;2024-01-10T10:34:21;4.50;97.30
2839;DHT22;1427;48.510;9.060;2024-01-10T10:36:50;5.20;97.10
2839;DHT22;1427;48.510;9.060;2024-01-10T10:39:19;6.10;95.40
2839;DHT22;1427;48.510;9.060;2024-01-10T10:41:47;7.50;93.10
2839;DHT22;1427;48.510;9.060;2024-01-10T10:44:19;9.60;90.30
2839;DHT22;1427;48.510;9.060;2024-01-10T10:46:49;11.80;79.60
2839;DHT22;1427;48.510;9.060;2024-01-10T10:49:42;14.10;71.70
2839;DHT22;1427;48.510;9.060;2024-01-10T10:52:13;16.10;61.40
2839;DHT22;1427;48.510;9.060;2024-01-10T10:54:44;17.50;56.90
2839;DHT22;1427;48.510;9.060;2024-01-10T10:57:16;18.40;53.00
2839;DHT22;1427;48.510;9.060;2024-01-10T10:59:45;19.40;50.20
2839;DHT22;1427;48.510;9.060;2024-01-10T11:02:21;19.20;47.60
2839;DHT22;1427;48.510;9.060;2024-01-10T11:04:55;19.80;46.80
2839;DHT22;1427;48.510;9.060;2024-01-10T11:07:23;20.30;45.50
2839;DHT22;1427;48.510;9.060;2024-01-10T11:09:54;20.80;44.10
2839;DHT22;1427;48.510;9.060;2024-01-10T11:12:32;21.20;42.10
2839;DHT22;1427;48.510;9.060;2024-01-10T11:15:17;20.30;42.90
2839;DHT22;1427;48.510;9.060;2024-01-10T11:18:10;20.90;42.20
2839;DHT22;1427;48.510;9.060;2024-01-10T11:21:01;20.80;41.50
2839;DHT22;1427;48.510;9.060;2024-01-10T11:23:38;21.70;41.40
2839;DHT22;1427;48.510;9.060;2024-01-10T11:26:08;21.70;41.00
2839;DHT22;1427;48.510;9.060;2024-01-10T11:28:36;21.80;40.30
2839;DHT22;1427;48.510;9.060;2024-01-10T11:31:06;21.80;40.60
2839;DHT22;1427;48.510;9.060;2024-01-10T11:33:36;22.10;39.70
2839;DHT22;1427;48.510;9.060;2024-01-10T11:36:07;22.90;39.00
2839;DHT22;1427;48.510;9.060;2024-01-10T11:38:58;23.40;38.60
2839;DHT22;1427;48.510;9.060;2024-01-10T11:41:31;23.40;38.50
2839;DHT22;1427;48.510;9.060;2024-01-10T11:44:28;23.90;37.50
2839;DHT22;1427;48.510;9.060;2024-01-10T11:46:57;23.60;37.20
2839;DHT22;1427;48.510;9.060;2024-01-10T11:49:26;23.40;37.30
2839;DHT22;1427;48.510;9.060;2024-01-10T11:51:55;23.50;36.90
2839;DHT22;1427;48.510;9.060;2024-01-10T11:54:35;23.90;37.10
2839;DHT22;1427;48.510;9.060;2024-01-10T11:57:12;23.70;37.00
2839;DHT22;1427;48.510;9.060;2024-01-10T11:59:42;23.70;36.40
2839;DHT22;1427;48.510;9.060;2024-01-10T12:02:12;23.80;36.10
2839;DHT22;1427;48.510;9.060;2024-01-10T12:04:40;23.70;36.70
2839;DHT22;1427;48.510;9.060;2024-01-10T12:07:15;24.30;36.30
2839;DHT22;1427;48.510;9.060;2024-01-10T12:09:44;24.50;35.10
2839;DHT22;1427;48.510;9.060;2024-01-10T12:12:14;24.00;35.50
2839;DHT22;1427;48.510;9.060;2024-01-10T12:14:43;23.40;35.00
2839;DHT22;1427;48.510;9.060;2024-01-10T12:17:11;23.00;35.80
2839;DHT22;1427;48.510;9.060;2024-01-10T12:19:40;23.20;36.10
2839;DHT22;1427;48.510;9.060;2024-01-10T12:22:13;24.30;35.20
2839;DHT22;1427;48.510;9.060;2024-01-10T12:24:44;24.60;35.50
2839;DHT22;1427;48.510;9.060;2024-01-10T12:27:16;24.60;34.30
2839;DHT22;1427;48.510;9.060;2024-01-10T12:29:48;24.00;35.20
2839;DHT22;1427;48.510;9.060;2024-01-10T12:32:17;24.00;35.80
2839;DHT22;1427;48.510;9.060;2024-01-10T12:34:46;23.60;35.50
2839;DHT22;1427;48.510;9.060;2024-01-10T12:37:14;23.20;35.40
2839;DHT22;1427;48.510;9.060;2024-01-10T12:39:43;23.80;35.10
2839;DHT22;1427;48.510;9.060;2024-01-10T12:42:11;24.30;34.90
2839;DHT22;1427;48.510;9.060;2024-01-10T12:44:44;23.90;35.80
2839;DHT22;1427;48.510;9.060;2024-01-10T12:47:18;24.70;34.70
2839;DHT22;1427;48.510;9.060;2024-01-10T12:49:47;25.80;33.90
2839;DHT22;1427;48.510;9.060;2024-01-10T12:52:16;25.00;34.60
2839;DHT22;1427;48.510;9.060;2024-01-10T12:54:48;25.30;33.70
2839;DHT22;1427;48.510;9.060;2024-01-10T12:57:16;25.20;34.20
2839;DHT22;1427;48.510;9.060;2024-01-10T12:59:46;24.70;36.00
2839;DHT22;1427;48.510;9.060;2024-01-10T13:02:14;24.00;34.60
2839;DHT22;1427;48.510;9.060;2024-01-10T13:04:42;23.90;35.00
2839;DHT22;1427;48.510;9.060;2024-01-10T13:07:10;24.10;34.20
2839;DHT22;1427;48.510;9.060;2024-01-10T13:09:38;24.30;34.00
2839;DHT22;1427;48.510;9.060;2024-01-10T13:12:07;23.90;34.30
2839;DHT22;1427;48.510;9.060;2024-01-10T13:14:36;22.40;35.60
2839;DHT22;1427;48.510;9.060;2024-01-10T13:17:05;22.90;34.90
2839;DHT22;1427;48.510;9.060;2024-01-10T13:19:33;22.70;34.90
2839;DHT22;1427;48.510;9.060;2024-01-10T13:22:02;23.10;35.10
2839;DHT22;1427;48.510;9.060;2024-01-10T13:24:34;22.50;35.00
2839;DHT22;1427;48.510;9.060;2024-01-10T13:27:02;22.40;35.40
2839;DHT22;1427;48.510;9.060;2024-01-10T13:29:30;22.50;35.80
2839;DHT22;1427;48.510;9.060;2024-01-10T13:31:58;21.90;35.60
2839;DHT22;1427;48.510;9.060;2024-01-10T13:34:28;22.20;35.50
2839;DHT22;1427;48.510;9.060;2024-01-10T13:36:57;22.80;35.10
2839;DHT22;1427;48.510;9.060;2024-01-10T13:39:25;22.60;35.40
2839;DHT22;1427;48.510;9.060;2024-01-10T13:41:53;21.80;35.90
2839;DHT22;1427;48.510;9.060;2024-01-10T13:44:22;22.00;36.30
2839;DHT22;1427;48.510;9.060;2024-01-10T13:46:50;21.60;36.50
2839;DHT22;1427;48.510;9.060;2024-01-10T13:49:18;22.70;36.20
2839;DHT22;1427;48.510;9.060;2024-01-10T13:51:48;22.90;35.70
2839;DHT22;1427;48.510;9.060;2024-01-10T13:54:16;22.10;35.70
2839;DHT22;1427;48.510;9.060;2024-01-10T13:56:44;21.70;36.10
2839;DHT22;1427;48.510;9.060;2024-01-10T13:59:12;21.50;36.70
2839;DHT22;1427;48.510;9.060;2024-01-10T14:01:41;21.10;36.70
2839;DHT22;1427;48.510;9.060;2024-01-10T14:04:09;21.30;36.50
2839;DHT22;1427;48.510;9.060;2024-01-10T14:06:37;21.00;36.80
2839;DHT22;1427;48.510;9.060;2024-01-10T14:09:06;21.20;36.90
2839;DHT22;1427;48.510;9.060;2024-01-10T14:11:36;20.60;37.60
2839;DHT22;1427;48.510;9.060;2024-01-10T14:14:04;20.20;38.00
2839;DHT22;1427;48.510;9.060;2024-01-10T14:16:32;21.00;37.20
2839;DHT22;1427;48.510;9.060;2024-01-10T14:19:00;20.20;37.10
2839;DHT22;1427;48.510;9.060;2024-01-10T14:21:29;20.10;37.30
2839;DHT22;1427;48.510;9.060;2024-01-10T14:23:58;19.20;38.40
2839;DHT22;1427;48.510;9.060;2024-01-10T14:26:27;16.70;40.30
2839;DHT22;1427;48.510;9.060;2024-01-10T14:28:56;15.50;41.90
2839;DHT22;1427;48.510;9.060;2024-01-10T14:31:24;14.80;42.90
2839;DHT22;1427;48.510;9.060;2024-01-10T14:34:09;13.10;44.60
2839;DHT22;1427;48.510;9.060;2024-01-10T14:36:38;10.90;47.30
2839;DHT22;1427;48.510;9.060;2024-01-10T14:39:06;9.30;51.20
2839;DHT22;1427;48.510;9.060;2024-01-10T14:41:36;8.00;54.00
2839;DHT22;1427;48.510;9.060;2024-01-10T14:44:04;6.60;56.90
2839;DHT22;1427;48.510;9.060;2024-01-10T14:46:32;5.60;59.70
2839;DHT22;1427;48.510;9.060;2024-01-10T14:49:00;5.00;62.10
2839;DHT22;1427;48.510;9.060;2024-01-10T14:51:29;4.50;64.00
2839;DHT22;1427;48.510;9.060;2024-01-10T14:53:57;4.10;65.60
2839;DHT22;1427;48.510;9.060;2024-01-10T14:56:25;3.80;67.00
2839;DHT22;1427;48.510;9.060;2024-01-10T14:58:54;3.60;68.20
2839;DHT22;1427;48.510;9.060;2024-01-10T15:01:22;3.60;68.80
2839;DHT22;1427;48.510;9.060;2024-01-10T15:03:50;3.90;69.10
2839;DHT22;1427;48.510;9.060;2024-01-10T15:06:20;4.10;68.40
2839;DHT22;1427;48.510;9.060;2024-01-10T15:08:49;4.00;68.40
2839;DHT22;1427;48.510;9.060;2024-01-10T15:11:17;3.70;69.20
2839;DHT22;1427;48.510;9.060;2024-01-10T15:13:45;3.50;70.40
2839;DHT22;1427;48.510;9.060;2024-01-10T15:16:17;3.40;71.60
2839;DHT22;1427;48.510;9.060;2024-01-10T15:18:45;3.30;72.40
2839;DHT22;1427;48.510;9.060;2024-01-10T15:21:13;3.20;73.40
2839;DHT22;1427;48.510;9.060;2024-01-10T15:23:41;3.10;74.40
2839;DHT22;1427;48.510;9.060;2024-01-10T15:26:15;3.00;75.50
2839;DHT22;1427;48.510;9.060;2024-01-10T15:28:46;2.90;76.10
2839;DHT22;1427;48.510;9.060;2024-01-10T15:31:16;2.50;76.90
2839;DHT22;1427;48.510;9.060;2024-01-10T15:33:44;2.70;78.30
2839;DHT22;1427;48.510;9.060;2024-01-10T15:36:14;2.60;79.70
2839;DHT22;1427;48.510;9.060;2024-01-10T15:38:43;2.50;81.40
2839;DHT22;1427;48.510;9.060;2024-01-10T15:41:11;2.30;82.70
2839;DHT22;1427;48.510;9.060;2024-01-10T15:43:39;2.40;84.00
2839;DHT22;1427;48.510;9.060;2024-01-10T15:46:07;2.20;84.10
2839;DHT22;1427;48.510;9.060;2024-01-10T15:48:37;2.10;85.00
2839;DHT22;1427;48.510;9.060;2024-01-10T15:51:05;2.10;86.30
2839;DHT22;1427;48.510;9.060;2024-01-10T15:53:35;2.00;86.80
2839;DHT22;1427;48.510;9.060;2024-01-10T15:56:04;2.00;87.70
2839;DHT22;1427;48.510;9.060;2024-01-10T15:58:32;2.00;88.10
2839;DHT22;1427;48.510;9.060;2024-01-10T16:01:00;2.00;88.80
2839;DHT22;1427;48.510;9.060;2024-01-10T16:03:28;2.00;89.50
2839;DHT22;1427;48.510;9.060;2024-01-10T16:05:58;1.70;90.00
2839;DHT22;1427;48.510;9.060;2024-01-10T16:08:26;1.40;90.90
2839;DHT22;1427;48.510;9.060;2024-01-10T16:10:55;1.50;91.80
2839;DHT22;1427;48.510;9.060;2024-01-10T16:13:23;1.80;91.80
2839;DHT22;1427;48.510;9.060;2024-01-10T16:15:53;1.70;91.70
2839;DHT22;1427;48.510;9.060;2024-01-10T16:18:22;1.70;91.80
2839;DHT22;1427;48.510;9.060;2024-01-10T16:20:51;1.70;91.80